Current Weather Conditions: station LCNA2

sailwx.info

Wind from 110 at 11 knots gusting 15

Air temperature 5.4° C
Dewpoint 3.5° C

Last reported at 2020-Jan-22 12:10 UTC.
Time now 2020-Jan-22 13:25 UTC

Location: N 56°04' W 132°42'.
View on Google Maps.

See reports from other nearby stations

  
Tides and Currents Weather Stations Pressure Air Temp Water Temp Dewpoint Dewpoint Depression Visibility Wind Speed Wind Dir Waves Ship Positions
date/time (UTC)wind fromknots sea level pressurealtimeterstation pressurevisibilityair tempwater tempwave heightnotes
2020-Jan-22 12:10 110 11 gusting 15 5.4
2020-Jan-22 11:10 130 12 gusting 18 5.3
2020-Jan-22 10:10 110 6 gusting 12 5.0
2020-Jan-22 09:10 130 12 gusting 19 5.2
2020-Jan-22 08:10 130 11 gusting 19 5.7
2020-Jan-22 07:10 120 8 gusting 15 5.4
2020-Jan-22 06:10 140 12 gusting 15 5.0
2020-Jan-22 05:10 150 7 gusting 12 4.6
2020-Jan-22 04:10 110 6 gusting 6 3.7
2020-Jan-22 03:10 110 6 gusting 7 3.2
2020-Jan-22 02:10 140 4 gusting 6 3.8
2020-Jan-22 01:10 030 2 gusting 4 3.6
2020-Jan-22 00:10 090 0 gusting 1 3.4
2020-Jan-21 23:10 3.4
2020-Jan-21 22:10 3.4
2020-Jan-21 21:10 110 2 gusting 4 3.1
2020-Jan-21 20:10 100 6 gusting 8 3.6
2020-Jan-21 19:10 190 6 gusting 6 3.6
2020-Jan-21 18:10 240 2 gusting 6 3.3
2020-Jan-21 17:10 280 1 gusting 2 2.8
2020-Jan-21 16:10 080 6 gusting 7 3.0
2020-Jan-21 15:10 240 4 gusting 6 3.6
2020-Jan-21 14:10 240 4 gusting 6 3.1
2020-Jan-21 13:10 130 2 gusting 4 3.2
2020-Jan-21 12:10 300 2 gusting 2 3.2
2020-Jan-21 11:10 360 1 gusting 4 2.9
2020-Jan-21 10:10 070 0 gusting 1 3.2
2020-Jan-21 09:10 360 5 gusting 5 3.5
2020-Jan-21 08:10 010 4 gusting 5 3.5
2020-Jan-21 07:10 030 2 gusting 5 3.8
2020-Jan-21 06:10 110 2 gusting 9 4.4
2020-Jan-21 05:10 170 7 gusting 9 4.4
2020-Jan-21 04:10 160 6 gusting 6 4.7
2020-Jan-21 03:10 120 6 gusting 9 5.2
2020-Jan-21 02:10 110 6 gusting 9 5.0
2020-Jan-21 01:10 130 13 gusting 20 4.9
2020-Jan-21 00:10 140 12 gusting 18 5.0
2020-Jan-20 23:10 140 9 gusting 15 4.8
2020-Jan-20 22:10 140 13 gusting 20 4.7
2020-Jan-20 21:10 130 9 gusting 18 4.4
2020-Jan-20 20:10 130 14 gusting 20 4.4
2020-Jan-20 19:10 110 13 gusting 18 4.3
2020-Jan-20 18:10 110 6 gusting 15 3.7
2020-Jan-20 17:10 120 8 gusting 14 3.5
2020-Jan-20 16:10 130 11 gusting 19 3.4
2020-Jan-20 15:10 130 15 gusting 21 3.8
2020-Jan-20 14:10 150 15 gusting 20 3.9
2020-Jan-20 13:10 150 17 gusting 20 4.0